createdAt,value
2022-08-07T00:01:43.746Z,101718.64
2022-08-07T00:04:47.182Z,101719.88
2022-08-07T00:07:46.435Z,101718.45
2022-08-07T00:10:57.406Z,101727.54
2022-08-07T00:14:07.757Z,101730.05
2022-08-07T00:17:11.473Z,101732.35
2022-08-07T00:20:29.961Z,101735.20
2022-08-07T00:23:37.791Z,101735.56
2022-08-07T00:26:59.026Z,101735.54
2022-08-07T00:29:56.960Z,101733.92
2022-08-07T00:32:53.994Z,101740.34
2022-08-07T00:35:51.113Z,101742.09
2022-08-07T00:38:45.609Z,101742.41
2022-08-07T00:42:01.973Z,101746.56
2022-08-07T00:44:59.560Z,101743.42
2022-08-07T00:48:08.915Z,101747.72
2022-08-07T00:51:07.718Z,101744.55
2022-08-07T00:54:04.315Z,101746.65
2022-08-07T00:57:00.698Z,101745.83
2022-08-07T00:59:53.952Z,101747.36
2022-08-07T01:02:52.989Z,101746.16
2022-08-07T01:06:09.871Z,101745.04
2022-08-07T01:10:04.196Z,101744.96
2022-08-07T01:12:54.495Z,101744.29
2022-08-07T01:16:05.598Z,101743.35
2022-08-07T01:19:14.827Z,101742.65
2022-08-07T01:22:22.595Z,101744.39
2022-08-07T01:25:53.807Z,101739.23
2022-08-07T01:28:36.749Z,101742.08
2022-08-07T01:31:42.340Z,101743.45
2022-08-07T01:34:47.371Z,101744.73
2022-08-07T01:37:45.165Z,101741.31
2022-08-07T01:40:41.468Z,101742.54
2022-08-07T01:43:38.100Z,101744.20
2022-08-07T01:46:35.211Z,101746.00
2022-08-07T01:49:31.877Z,101747.18
2022-08-07T01:52:27.670Z,101749.00
2022-08-07T01:55:24.236Z,101755.41
2022-08-07T01:58:27.175Z,101750.64
2022-08-07T02:02:01.942Z,101747.73
2022-08-07T02:04:58.085Z,101748.00
2022-08-07T02:08:02.909Z,101749.53
2022-08-07T02:11:03.474Z,101747.64
2022-08-07T02:14:03.920Z,101744.09
2022-08-07T02:17:02.674Z,101743.77
2022-08-07T02:20:05.246Z,101744.38
2022-08-07T02:23:06.579Z,101741.83
2022-08-07T02:26:30.799Z,101740.21
2022-08-07T02:29:18.266Z,101739.95
2022-08-07T02:32:17.077Z,101738.60
2022-08-07T02:35:20.430Z,101740.32
2022-08-07T02:38:38.372Z,101737.73
2022-08-07T02:41:37.367Z,101739.23
2022-08-07T02:44:34.721Z,101739.60
2022-08-07T02:47:44.918Z,101739.23
2022-08-07T02:50:46.221Z,101744.24
2022-08-07T02:53:41.458Z,101743.75
2022-08-07T02:56:43.290Z,101740.91
2022-08-07T02:59:43.945Z,101742.52
2022-08-07T03:02:58.106Z,101741.89
2022-08-07T03:05:57.560Z,101742.22
2022-08-07T03:09:01.094Z,101736.00
2022-08-07T03:12:02.895Z,101737.48
2022-08-07T03:15:07.775Z,101740.36
2022-08-07T03:18:06.678Z,101739.70
2022-08-07T03:21:08.926Z,101737.92
2022-08-07T03:24:20.721Z,101735.66
2022-08-07T03:27:30.762Z,101738.19
2022-08-07T03:30:42.578Z,101738.33
2022-08-07T03:33:41.413Z,101740.13
2022-08-07T03:36:40.199Z,101743.74
2022-08-07T03:39:59.922Z,101750.45
2022-08-07T03:43:02.901Z,101754.38
2022-08-07T03:46:04.523Z,101754.42
2022-08-07T03:49:21.847Z,101752.70
2022-08-07T03:52:27.047Z,101754.48
2022-08-07T03:55:58.064Z,101759.46
2022-08-07T03:59:08.219Z,101759.99
2022-08-07T04:02:10.123Z,101761.94
2022-08-07T04:05:17.042Z,101756.79
2022-08-07T04:08:18.708Z,101766.34
2022-08-07T04:12:24.946Z,101765.70
2022-08-07T04:14:49.812Z,101769.66
2022-08-07T04:18:56.510Z,101773.33
2022-08-07T04:21:07.552Z,101775.39
2022-08-07T04:24:10.697Z,101776.48
2022-08-07T04:27:27.524Z,101779.31
2022-08-07T04:30:43.970Z,101779.98
2022-08-07T04:33:56.425Z,101783.16
2022-08-07T04:36:55.841Z,101781.42
2022-08-07T04:39:54.778Z,101782.48
2022-08-07T04:42:54.466Z,101779.74
2022-08-07T04:46:12.491Z,101782.08
2022-08-07T04:49:38.435Z,101786.52
2022-08-07T04:52:51.002Z,101790.73
2022-08-07T04:58:15.884Z,101790.35
2022-08-07T05:00:11.476Z,101786.64
2022-08-07T05:02:51.537Z,101789.41
2022-08-07T05:05:57.594Z,101788.20
2022-08-07T05:09:07.935Z,101789.77
2022-08-07T05:12:27.292Z,101788.30
2022-08-07T05:15:37.516Z,101793.73
2022-08-07T05:18:42.163Z,101798.54
2022-08-07T05:21:59.963Z,101795.70
2022-08-07T05:25:08.504Z,101798.56
2022-08-07T05:28:20.980Z,101795.52
2022-08-07T05:31:34.594Z,101802.02
2022-08-07T05:34:37.328Z,101800.98
2022-08-07T05:37:40.759Z,101801.18
2022-08-07T05:40:50.306Z,101802.29
2022-08-07T05:44:08.201Z,101801.63
2022-08-07T05:47:18.158Z,101801.00
2022-08-07T05:50:17.430Z,101802.33
2022-08-07T05:54:09.541Z,101806.60
2022-08-07T05:56:37.888Z,101806.97
2022-08-07T05:59:58.060Z,101805.64
2022-08-07T06:03:13.557Z,101803.14
2022-08-07T06:06:19.035Z,101801.50
2022-08-07T06:09:22.796Z,101803.61
2022-08-07T06:12:51.003Z,101806.56
2022-08-07T06:15:50.524Z,101802.12
2022-08-07T06:18:55.845Z,101803.70
2022-08-07T06:22:15.071Z,101805.09
2022-08-07T06:25:22.945Z,101801.62
2022-08-07T06:28:27.239Z,101799.81
2022-08-07T06:31:47.278Z,101798.04
2022-08-07T06:34:53.015Z,101801.75
2022-08-07T06:37:53.005Z,101804.05
2022-08-07T06:40:54.698Z,101803.69
2022-08-07T06:43:59.429Z,101804.59
2022-08-07T06:47:10.112Z,101806.52
2022-08-07T06:50:13.332Z,101814.09
2022-08-07T06:54:11.507Z,101815.55
2022-08-07T06:56:50.659Z,101819.51
2022-08-07T07:00:12.385Z,101820.27
2022-08-07T07:03:39.541Z,101823.35
2022-08-07T07:07:00.549Z,101823.63
2022-08-07T07:10:09.117Z,101825.96
2022-08-07T07:13:55.423Z,101824.46
2022-08-07T07:16:54.725Z,101823.13
2022-08-07T07:20:09.858Z,101819.45
2022-08-07T07:24:08.949Z,101816.20
2022-08-07T07:26:52.333Z,101811.79
2022-08-07T07:30:10.094Z,101808.13
2022-08-07T07:33:11.617Z,101807.46
2022-08-07T07:36:20.892Z,101809.19
2022-08-07T07:39:22.043Z,101808.54
2022-08-07T07:42:33.278Z,101804.91
2022-08-07T07:46:53.631Z,101804.41
2022-08-07T07:49:08.932Z,101802.12
2022-08-07T07:52:39.084Z,101799.41
2022-08-07T07:55:54.851Z,101794.91
2022-08-07T07:59:03.004Z,101798.08
2022-08-07T08:02:05.313Z,101794.63
2022-08-07T08:05:15.302Z,101798.83
2022-08-07T08:08:34.763Z,101799.19
2022-08-07T08:12:01.751Z,101795.12
2022-08-07T08:15:15.157Z,101795.13
2022-08-07T08:18:22.678Z,101800.06
2022-08-07T08:22:00.484Z,101800.21
2022-08-07T08:25:42.049Z,101797.88
2022-08-07T08:28:55.543Z,101790.55
2022-08-07T08:32:17.896Z,101790.15
2022-08-07T08:35:23.015Z,101788.31
2022-08-07T08:38:43.078Z,101788.91
2022-08-07T08:41:57.022Z,101791.66
2022-08-07T08:45:15.925Z,101785.73
2022-08-07T08:48:42.878Z,101782.27
2022-08-07T08:52:12.972Z,101787.53
2022-08-07T08:55:54.414Z,101790.29
2022-08-07T08:59:06.651Z,101781.13
2022-08-07T09:02:34.679Z,101786.75
2022-08-07T09:05:52.121Z,101782.38
2022-08-07T09:09:21.165Z,101781.79
2022-08-07T09:12:59.154Z,101784.88
2022-08-07T09:16:23.130Z,101776.57
2022-08-07T09:19:53.320Z,101773.30
2022-08-07T09:24:28.880Z,101773.11
2022-08-07T09:26:47.947Z,101776.80
2022-08-07T09:30:18.160Z,101776.46
2022-08-07T09:34:02.756Z,101775.02
2022-08-07T09:37:10.935Z,101772.02
2022-08-07T09:40:18.206Z,101770.34
2022-08-07T09:44:03.384Z,101768.51
2022-08-07T09:47:52.192Z,101761.45
2022-08-07T09:50:59.383Z,101756.52
2022-08-07T09:54:02.824Z,101752.30
2022-08-07T09:57:53.799Z,101747.61
2022-08-07T10:01:23.270Z,101746.89
2022-08-07T10:04:57.212Z,101747.52
2022-08-07T10:08:05.834Z,101742.09
2022-08-07T10:12:00.031Z,101737.74
2022-08-07T10:15:03.186Z,101731.91
2022-08-07T10:18:39.169Z,101730.56
2022-08-07T10:22:15.636Z,101730.42
2022-08-07T10:25:42.501Z,101723.02
2022-08-07T10:29:01.901Z,101724.75
2022-08-07T10:32:37.018Z,101723.20
2022-08-07T10:36:17.152Z,101721.36
2022-08-07T10:40:02.985Z,101722.13
2022-08-07T10:43:11.939Z,101714.55
2022-08-07T10:46:26.403Z,101711.77
2022-08-07T10:49:49.499Z,101708.88
2022-08-07T10:53:08.964Z,101706.96
2022-08-07T10:56:31.439Z,101700.70
2022-08-07T11:00:39.308Z,101695.41
2022-08-07T11:04:16.520Z,101694.06
2022-08-07T11:07:59.662Z,101689.38
2022-08-07T11:11:04.352Z,101688.73
2022-08-07T11:14:45.309Z,101681.82
2022-08-07T11:17:55.121Z,101678.45
2022-08-07T11:21:14.183Z,101680.31
2022-08-07T11:24:25.239Z,101671.48
2022-08-07T11:28:02.806Z,101666.06
2022-08-07T11:31:08.571Z,101672.42
2022-08-07T11:34:37.236Z,101665.73
2022-08-07T11:38:17.588Z,101660.84
2022-08-07T11:42:02.050Z,101662.47
2022-08-07T11:44:59.230Z,101658.84
2022-08-07T11:48:29.706Z,101652.86
2022-08-07T11:51:47.445Z,101647.30
2022-08-07T11:55:13.140Z,101648.20
2022-08-07T11:58:33.157Z,101645.64
2022-08-07T12:02:02.288Z,101644.36
2022-08-07T12:05:41.315Z,101645.17
2022-08-07T12:08:44.063Z,101645.30
2022-08-07T12:12:08.804Z,101642.94
2022-08-07T12:16:05.400Z,101643.84
2022-08-07T12:18:50.712Z,101641.73
2022-08-07T12:22:37.500Z,101637.31
2022-08-07T12:26:05.431Z,101634.30
2022-08-07T12:29:38.785Z,101627.59
2022-08-07T12:32:43.794Z,101625.62
2022-08-07T12:35:48.197Z,101625.14
2022-08-07T12:38:59.319Z,101619.69
2022-08-07T12:42:10.282Z,101622.50
2022-08-07T12:45:24.457Z,101617.84
2022-08-07T12:48:53.290Z,101614.20
2022-08-07T12:52:14.377Z,101613.94
2022-08-07T12:55:41.434Z,101610.43
2022-08-07T12:59:02.029Z,101614.48
2022-08-07T13:02:19.089Z,101611.02
2022-08-07T13:06:21.996Z,101607.64
2022-08-07T13:10:28.391Z,101607.20
2022-08-07T13:14:02.305Z,101603.78
2022-08-07T13:17:39.943Z,101601.83
2022-08-07T13:20:51.934Z,101598.06
2022-08-07T13:24:04.637Z,101591.71
2022-08-07T13:27:20.797Z,101592.27
2022-08-07T13:30:40.319Z,101590.16
2022-08-07T13:34:31.487Z,101588.67
2022-08-07T13:37:27.481Z,101583.10
2022-08-07T13:40:42.311Z,101579.23
2022-08-07T13:43:56.112Z,101580.21
2022-08-07T13:46:58.221Z,101578.69
2022-08-07T13:50:35.896Z,101570.45
2022-08-07T13:53:35.902Z,101569.29
2022-08-07T13:57:05.005Z,101567.95
2022-08-07T14:00:26.989Z,101563.38
2022-08-07T14:04:06.741Z,101564.20
2022-08-07T14:07:04.237Z,101554.02
2022-08-07T14:10:27.938Z,101549.42
2022-08-07T14:13:37.065Z,101547.15
2022-08-07T14:16:50.898Z,101543.11
2022-08-07T14:20:41.127Z,101541.34
2022-08-07T14:23:59.117Z,101538.87
2022-08-07T14:28:09.314Z,101538.83
2022-08-07T14:30:33.019Z,101532.28
2022-08-07T14:33:44.130Z,101527.80
2022-08-07T14:36:56.241Z,101523.89
2022-08-07T14:43:57.910Z,101520.14
2022-08-07T14:47:14.346Z,101520.21
2022-08-07T14:50:27.181Z,101518.94
2022-08-07T14:54:09.847Z,101515.23
2022-08-07T14:56:55.068Z,101513.39
2022-08-07T15:00:06.875Z,101514.42
2022-08-07T15:03:16.485Z,101514.94
2022-08-07T15:06:19.324Z,101515.73
2022-08-07T15:09:47.102Z,101511.80
2022-08-07T15:12:55.267Z,101513.04
2022-08-07T15:16:14.672Z,101511.33
2022-08-07T15:20:16.174Z,101506.97
2022-08-07T15:22:53.966Z,101504.88
2022-08-07T15:26:07.614Z,101507.11
2022-08-07T15:30:04.653Z,101504.68
2022-08-07T15:40:11.297Z,101495.38
2022-08-07T15:43:53.661Z,101490.75
2022-08-07T15:46:51.726Z,101487.77
2022-08-07T15:50:06.078Z,101487.29
2022-08-07T15:53:09.150Z,101483.48
2022-08-07T15:56:14.998Z,101482.70
2022-08-07T15:59:39.239Z,101480.55
2022-08-07T16:02:47.169Z,101474.91
2022-08-07T16:05:57.429Z,101477.02
2022-08-07T16:09:00.950Z,101475.58
2022-08-07T16:12:28.716Z,101473.85
2022-08-07T16:15:54.980Z,101476.27
2022-08-07T16:19:42.239Z,101475.11
2022-08-07T16:23:09.646Z,101470.66
2022-08-07T16:27:04.334Z,101469.50
2022-08-07T16:30:31.881Z,101470.14
2022-08-07T16:34:01.404Z,101463.67
2022-08-07T16:38:04.501Z,101462.21
2022-08-07T16:41:41.610Z,101460.33
2022-08-07T16:46:21.120Z,101455.84
2022-08-07T16:50:28.672Z,101457.23
2022-08-07T16:52:52.380Z,101456.97
2022-08-07T16:56:13.566Z,101455.23
2022-08-07T16:59:45.669Z,101457.41
2022-08-07T17:03:17.195Z,101458.05
2022-08-07T17:06:44.779Z,101452.50
2022-08-07T17:10:06.284Z,101453.66
2022-08-07T17:14:19.375Z,101454.63
2022-08-07T17:17:46.129Z,101456.19
2022-08-07T17:20:57.410Z,101458.45
2022-08-07T17:24:06.324Z,101460.66
2022-08-07T17:27:19.974Z,101464.71
2022-08-07T17:30:35.115Z,101463.31
2022-08-07T17:34:15.493Z,101464.02
2022-08-07T17:37:14.237Z,101468.00
2022-08-07T17:40:35.270Z,101468.09
2022-08-07T17:44:02.198Z,101467.76
2022-08-07T17:47:38.574Z,101469.56
2022-08-07T17:51:01.655Z,101474.84
2022-08-07T17:54:29.587Z,101472.37
2022-08-07T17:58:02.308Z,101477.64
2022-08-07T18:01:21.439Z,101480.95
2022-08-07T18:04:34.742Z,101481.30
2022-08-07T18:07:52.468Z,101482.23
2022-08-07T18:12:07.996Z,101483.25
2022-08-07T18:14:54.460Z,101483.49
2022-08-07T18:18:47.543Z,101489.45
2022-08-07T18:21:55.147Z,101490.32
2022-08-07T18:25:19.309Z,101493.45
2022-08-07T18:28:58.693Z,101493.98
2022-08-07T18:32:31.530Z,101495.09
2022-08-07T18:36:00.468Z,101496.89
2022-08-07T18:40:06.916Z,101498.71
2022-08-07T18:43:03.201Z,101500.52
2022-08-07T18:46:25.456Z,101504.71
2022-08-07T18:50:30.966Z,101509.90
2022-08-07T18:53:36.746Z,101513.13
2022-08-07T18:57:23.507Z,101513.70
2022-08-07T19:00:34.593Z,101515.95
2022-08-07T19:03:57.480Z,101514.06
2022-08-07T19:07:34.423Z,101513.72
2022-08-07T19:10:51.301Z,101513.70
2022-08-07T19:14:16.993Z,101516.12
2022-08-07T19:17:55.570Z,101517.31
2022-08-07T19:21:44.326Z,101521.36
2022-08-07T19:24:43.398Z,101523.46
2022-08-07T19:30:56.847Z,101524.65
2022-08-07T19:31:59.870Z,101532.39
2022-08-07T19:35:09.689Z,101532.67
2022-08-07T19:38:20.675Z,101533.48
2022-08-07T19:41:44.223Z,101533.51
2022-08-07T19:45:00.704Z,101535.40
2022-08-07T19:48:24.461Z,101539.89
2022-08-07T19:51:50.694Z,101543.88
2022-08-07T19:55:02.888Z,101542.55
2022-08-07T19:58:28.464Z,101549.59
2022-08-07T20:01:57.878Z,101548.52
2022-08-07T20:05:14.535Z,101547.14
2022-08-07T20:08:20.354Z,101549.81
2022-08-07T20:11:23.077Z,101555.54
2022-08-07T20:14:58.526Z,101550.95
2022-08-07T20:18:03.400Z,101554.96
2022-08-07T20:21:21.234Z,101553.88
2022-08-07T20:24:30.521Z,101556.91
2022-08-07T20:27:48.308Z,101555.98
2022-08-07T20:31:21.278Z,101556.55
2022-08-07T20:34:50.764Z,101564.43
2022-08-07T20:38:03.677Z,101568.42
2022-08-07T20:41:18.916Z,101566.89
2022-08-07T20:44:24.419Z,101569.55
2022-08-07T20:47:56.512Z,101573.01
2022-08-07T20:51:17.559Z,101570.81
2022-08-07T20:54:29.732Z,101571.81
2022-08-07T20:57:47.659Z,101572.20
2022-08-07T21:01:19.313Z,101579.08
2022-08-07T21:04:33.755Z,101575.56
2022-08-07T21:07:50.070Z,101573.46
2022-08-07T21:10:53.360Z,101571.11
2022-08-07T21:14:16.476Z,101569.00
2022-08-07T21:18:17.145Z,101568.59
2022-08-07T21:20:57.596Z,101568.98
2022-08-07T21:24:17.557Z,101569.55
2022-08-07T21:27:39.914Z,101571.41
2022-08-07T21:30:54.389Z,101574.61
2022-08-07T21:33:59.534Z,101574.85
2022-08-07T21:37:09.516Z,101574.23
2022-08-07T21:40:28.127Z,101580.20
2022-08-07T21:43:56.736Z,101576.86
2022-08-07T21:47:04.366Z,101575.09
2022-08-07T21:50:11.550Z,101576.62
2022-08-07T21:53:21.112Z,101573.97
2022-08-07T21:56:39.569Z,101576.08
2022-08-07T22:00:04.924Z,101576.31
2022-08-07T22:03:16.721Z,101571.54
2022-08-07T22:06:31.070Z,101568.98
2022-08-07T22:09:37.951Z,101566.40
2022-08-07T22:12:59.615Z,101569.03
2022-08-07T22:16:38.328Z,101562.69
2022-08-07T22:19:41.538Z,101567.34
2022-08-07T22:22:51.604Z,101563.63
2022-08-07T22:26:05.833Z,101564.36
2022-08-07T22:29:17.069Z,101561.35
2022-08-07T22:32:26.703Z,101557.45
2022-08-07T22:35:39.365Z,101560.35
2022-08-07T22:38:51.897Z,101557.80
2022-08-07T22:42:04.160Z,101554.66
2022-08-07T22:46:40.482Z,101548.60
2022-08-07T22:48:56.309Z,101550.21
2022-08-07T22:52:37.819Z,101546.60
2022-08-07T22:55:52.203Z,101545.58
2022-08-07T22:59:17.343Z,101550.21
2022-08-07T23:02:57.575Z,101554.34
2022-08-07T23:06:24.178Z,101554.54
2022-08-07T23:10:04.377Z,101555.80
2022-08-07T23:13:17.365Z,101555.61
2022-08-07T23:16:46.912Z,101552.59
2022-08-07T23:20:06.338Z,101555.23
2022-08-07T23:24:05.935Z,101560.55
2022-08-07T23:27:10.798Z,101562.20
2022-08-07T23:30:37.064Z,101566.64
2022-08-07T23:34:23.578Z,101567.90
2022-08-07T23:37:37.442Z,101573.55
2022-08-07T23:41:00.637Z,101578.00
2022-08-07T23:44:13.642Z,101578.17
2022-08-07T23:47:29.581Z,101575.73
2022-08-07T23:50:42.109Z,101576.75
2022-08-07T23:53:50.860Z,101575.73
2022-08-07T23:56:59.644Z,101580.77
